Reidsville, New York
Current Conditions -  °F | °C
As of 12:51 AM on Friday 19 Dec 2014 (Local Time) from KALB Reporting Station
Overcast Overcast  
Wind Chill: 23°   Ceiling: 4400
Heat Index: 33°   Visibility: 10mi
Dew Point: 24°   Wind: 15mph
Humidity: 70%   Direction: 280°W
Pressure: 29.95"   Gusts: NA
Location:  42.6396°N, 73.9672°W
Report Text: KALB 190551Z 28013KT 10SM FEW020 OVC044 01/M04 A2995 RMK AO2 SLP146 4/001 T00061044 10011 20006 51002
Loading
Personal Weather Stations






























Interactive Weather Map New forecast layout! Learn more

10-Day Weather Forecast

Advertisements
Track Severe Weather on mobile